createdAt,value
2022-10-13T00:01:55.197Z,12.3
2022-10-13T00:07:07.280Z,12.3
2022-10-13T00:12:21.212Z,12.1
2022-10-13T00:17:30.848Z,11.8
2022-10-13T00:22:44.117Z,11.6
2022-10-13T00:27:54.681Z,11.8
2022-10-13T00:33:10.696Z,11.8
2022-10-13T00:38:23.538Z,11.8
2022-10-13T00:43:33.305Z,11.8
2022-10-13T00:48:44.449Z,11.7
2022-10-13T00:53:55.659Z,11.9
2022-10-13T00:59:08.376Z,12.1
2022-10-13T01:09:41.424Z,11.7
2022-10-13T01:14:53.547Z,11.6
2022-10-13T01:25:26.779Z,11.8
2022-10-13T01:41:23.962Z,12
2022-10-13T01:46:35.289Z,12.1
2022-10-13T01:51:45.112Z,11.7
2022-10-13T01:56:57.178Z,11.8
2022-10-13T02:02:08.249Z,11.7
2022-10-13T02:07:20.326Z,11.7
2022-10-13T02:12:32.136Z,11.7
2022-10-13T02:17:46.675Z,11.7
2022-10-13T02:22:56.736Z,11.6
2022-10-13T02:28:06.442Z,11.6
2022-10-13T02:33:19.226Z,11.7
2022-10-13T02:38:31.087Z,11.6
2022-10-13T02:43:42.983Z,11.6
2022-10-13T02:49:03.196Z,11.6
2022-10-13T02:54:12.432Z,11.6
2022-10-13T03:15:29.812Z,11.5
2022-10-13T03:20:45.439Z,11.5
2022-10-13T03:25:58.759Z,11.3
2022-10-13T03:31:07.205Z,11.2
2022-10-13T03:36:18.499Z,10.9
2022-10-13T03:41:27.999Z,11
2022-10-13T03:46:38.174Z,10.8
2022-10-13T03:51:48.818Z,10.6
2022-10-13T03:57:00.271Z,10.3
2022-10-13T04:02:11.355Z,10.4
2022-10-13T04:07:22.604Z,10.4
2022-10-13T04:12:34.897Z,10.4
2022-10-13T04:17:50.735Z,10.4
2022-10-13T04:23:03.802Z,10.2
2022-10-13T04:33:36.667Z,9.9
2022-10-13T04:38:49.238Z,9.9
2022-10-13T04:44:04.523Z,9.9
2022-10-13T04:49:17.529Z,10.3
2022-10-13T04:54:30.904Z,10.4
2022-10-13T04:59:42.607Z,10.2
2022-10-13T05:04:55.678Z,10.3
2022-10-13T05:10:07.995Z,10.4
2022-10-13T05:15:20.338Z,10.5
2022-10-13T05:20:31.548Z,10.4
2022-10-13T05:25:43.663Z,10.4
2022-10-13T05:31:04.955Z,10.4
2022-10-13T05:36:09.673Z,10.4
2022-10-13T05:41:25.075Z,10.4
2022-10-13T05:46:38.303Z,10.4
2022-10-13T05:51:50.731Z,10.2
2022-10-13T05:57:02.797Z,10.2
2022-10-13T06:07:36.426Z,10
2022-10-13T06:18:12.111Z,10
2022-10-13T06:28:59.446Z,9.8
2022-10-13T06:33:58.070Z,9.9
2022-10-13T06:39:13.555Z,9.9
2022-10-13T06:44:25.551Z,9.9
2022-10-13T06:49:40.316Z,9.8
2022-10-13T06:54:53.092Z,9.8
2022-10-13T07:00:08.724Z,9.8
2022-10-13T07:05:25.767Z,9.8
2022-10-13T07:15:58.883Z,10.2
2022-10-13T07:21:12.184Z,10.2
2022-10-13T07:26:23.007Z,10.6
2022-10-13T07:31:35.816Z,11
2022-10-13T07:36:50.042Z,11
2022-10-13T07:42:06.128Z,11.1
2022-10-13T07:47:19.985Z,11.5
2022-10-13T07:52:33.250Z,11.5
2022-10-13T08:03:04.937Z,12.2
2022-10-13T08:13:37.035Z,12.1
2022-10-13T08:18:57.773Z,12.1
2022-10-13T08:24:05.124Z,12.3
2022-10-13T08:29:25.039Z,12.6
2022-10-13T08:34:30.727Z,12.8
2022-10-13T08:39:42.296Z,12.9
2022-10-13T08:50:15.844Z,13.1
2022-10-13T09:00:50.496Z,13.9
2022-10-13T09:06:03.293Z,14
2022-10-13T09:16:34.733Z,14.2
2022-10-13T09:32:49.723Z,15.5
2022-10-13T09:48:46.997Z,17
2022-10-13T10:10:00.158Z,16.3
2022-10-13T10:20:38.833Z,16.3
2022-10-13T10:25:56.950Z,16.3
2022-10-13T10:31:08.467Z,17.1
2022-10-13T10:41:42.920Z,17
2022-10-13T10:46:59.429Z,17
2022-10-13T10:57:41.868Z,17
2022-10-13T11:02:55.379Z,17.7
2022-10-13T11:08:07.883Z,17.8
2022-10-13T11:18:40.460Z,17.7
2022-10-13T11:29:21.590Z,18.4
2022-10-13T11:34:31.732Z,18.4
2022-10-13T11:39:41.777Z,16.9
2022-10-13T11:50:17.499Z,16.5
2022-10-13T11:55:30.851Z,16.5
2022-10-13T12:00:43.615Z,16.5
2022-10-13T12:05:57.688Z,16.5
2022-10-13T12:11:12.937Z,16.4
2022-10-13T12:21:48.089Z,16.4
2022-10-13T12:27:00.095Z,16.2
2022-10-13T12:42:56.599Z,16.5
2022-10-13T12:48:17.496Z,16.5
2022-10-13T12:58:57.271Z,16.5
2022-10-13T13:04:11.704Z,16.7
2022-10-13T13:09:33.371Z,16.7
2022-10-13T13:25:30.015Z,16.7
2022-10-13T13:30:45.463Z,16.6
2022-10-13T13:36:00.415Z,16.6
2022-10-13T13:41:13.230Z,16.5
2022-10-13T14:02:31.012Z,16.4
2022-10-13T14:18:31.948Z,16.4
2022-10-13T14:23:43.873Z,15.9
2022-10-13T14:45:00.101Z,15.7
2022-10-13T14:55:49.027Z,15.7
2022-10-13T15:01:07.821Z,15.7
2022-10-13T15:06:19.452Z,16.4
2022-10-13T15:11:35.503Z,16.4
2022-10-13T15:16:52.249Z,16.4
2022-10-13T15:27:22.878Z,15.6
2022-10-13T15:32:40.002Z,15.6
2022-10-13T15:37:56.925Z,15.6
2022-10-13T15:43:12.003Z,15.6
2022-10-13T15:48:24.537Z,15.4
2022-10-13T15:53:38.304Z,15.4
2022-10-13T15:58:54.409Z,15.3
2022-10-13T16:04:10.163Z,15.3
2022-10-13T16:09:24.207Z,15.3
2022-10-13T16:14:36.118Z,15
2022-10-13T16:25:18.939Z,15
2022-10-13T16:30:30.645Z,15
2022-10-13T16:35:42.320Z,15
2022-10-13T16:46:19.709Z,14.8
2022-10-13T16:51:36.615Z,14.8
2022-10-13T16:56:51.098Z,14.8
2022-10-13T17:02:07.716Z,14.7
2022-10-13T17:12:46.744Z,14.7
2022-10-13T17:17:57.787Z,14.5
2022-10-13T17:23:13.551Z,14.5
2022-10-13T17:33:48.690Z,14.2
2022-10-13T17:38:59.093Z,14.2
2022-10-13T17:49:36.906Z,14.2
2022-10-13T17:54:49.229Z,14
2022-10-13T18:00:05.749Z,14
2022-10-13T18:11:09.149Z,14
2022-10-13T18:15:56.017Z,14
2022-10-13T18:21:12.932Z,14
2022-10-13T18:31:49.386Z,14
2022-10-13T18:42:22.861Z,13.4
2022-10-13T18:47:35.376Z,13.4
2022-10-13T18:52:51.138Z,13.4
2022-10-13T18:58:08.199Z,13.4
2022-10-13T19:08:43.568Z,13.4
2022-10-13T19:13:54.066Z,13.6
2022-10-13T19:19:06.298Z,13.6
2022-10-13T19:24:19.419Z,13.3
2022-10-13T19:29:28.420Z,13.1
2022-10-13T19:34:38.881Z,13
2022-10-13T19:39:50.399Z,13.2
2022-10-13T19:45:04.413Z,13.1
2022-10-13T19:55:37.678Z,13.1
2022-10-13T20:00:49.606Z,13
2022-10-13T20:06:03.396Z,13
2022-10-13T20:11:24.556Z,12.6
2022-10-13T20:16:37.476Z,12.6
2022-10-13T20:21:49.455Z,12.7
2022-10-13T20:26:58.950Z,12.5
2022-10-13T20:32:10.153Z,12.4
2022-10-13T20:37:23.846Z,12.4
2022-10-13T20:42:34.005Z,12.4
2022-10-13T20:53:12.712Z,12.4
2022-10-13T20:58:25.877Z,12.4
2022-10-13T21:08:59.175Z,12
2022-10-13T21:14:10.306Z,11.9
2022-10-13T21:19:21.912Z,11.9
2022-10-13T21:26:06.029Z,11.9
2022-10-13T21:42:01.285Z,11.7
2022-10-13T21:52:33.124Z,11.6
2022-10-13T21:57:44.851Z,11.7
2022-10-13T22:02:55.506Z,11.7
2022-10-13T22:08:08.209Z,11.7
2022-10-13T22:13:20.242Z,11.8
2022-10-13T22:34:43.458Z,11.8
2022-10-13T22:39:55.999Z,11.6
2022-10-13T22:45:33.414Z,11.6
2022-10-13T22:56:03.089Z,11.6
2022-10-13T23:01:14.151Z,11.6
2022-10-13T23:06:26.294Z,11.5
2022-10-13T23:22:21.894Z,11.5
2022-10-13T23:38:07.777Z,11.4
2022-10-13T23:43:20.007Z,11.4
2022-10-13T23:59:15.699Z,11.5
